Whitehall, Montana
Current Conditions -  °F | °C
As of 9:53 PM on Saturday 22 Nov 2014 (Local Time) from KBTM Reporting Station
Light Snow Light Snow  
Wind Chill: 21°   Ceiling: 3500
Heat Index: 28°   Visibility: 7mi
Dew Point: 24°   Wind: 7mph
Humidity: 85%   Direction: 330°NNW
Pressure: 29.73"   Gusts: NA
Location:  45.87°N, 112.1°W
Report Text: KBTM 230453Z AUTO 33006KT 7SM -SN BKN035 OVC045 M02/M04 A2973 RMK AO2 SNB0357 SLP086 P0000 T10221044
Loading
Personal Weather Stations






























Interactive Weather Map New forecast layout! Learn more

10-Day Weather Forecast

Advertisements
Track Severe Weather on mobile